Time;durP1;ratioP1;P1;durP2;ratioP2;P2;SDS_P1;SDS_P2;PMS_P1;PMS_P2;Temp;Humidity;BMP_temperature;BMP_pressure;BME280_temperature;BME280_humidity;BME280_pressure;Samples;Min_cycle;Max_cycle;Signal;HPM_P1;HPM_P2
2022/10/10 00:01:38;;;;;;;5.18;0.98;;;;;;;6.29;50.95;101590.50;5051342;28;20037;-76
2022/10/10 00:04:04;;;;;;;4.32;1.08;;;;;;;6.27;50.97;101589.63;5042020;28;20064;-78
2022/10/10 00:06:33;;;;;;;2.50;0.80;;;;;;;6.21;51.32;101579.28;5034467;28;20040;-77
2022/10/10 00:09:06;;;;;;;2.13;0.50;;;;;;;6.35;50.89;101573.97;5017783;28;20062;-68
2022/10/10 00:11:31;;;;;;;2.20;0.47;;;;;;;6.33;50.86;101567.94;5026161;28;20041;-69
2022/10/10 00:14:05;;;;;;;5.93;0.85;;;;;;;6.28;51.01;101562.78;5027171;28;20047;-69
2022/10/10 00:16:32;;;;;;;5.03;0.85;;;;;;;6.20;51.14;101562.84;5024904;28;20644;-68
2022/10/10 00:19:01;;;;;;;8.45;0.77;;;;;;;6.22;50.97;101563.69;5015940;28;20049;-70
2022/10/10 00:21:26;;;;;;;5.65;1.10;;;;;;;6.21;50.69;101558.53;5051302;28;20142;-76
2022/10/10 00:23:55;;;;;;;3.90;1.10;;;;;;;6.13;51.32;101558.63;5039378;28;20051;-78
2022/10/10 00:26:20;;;;;;;15.27;0.93;;;;;;;6.07;51.09;101564.72;5035141;28;20420;-76
2022/10/10 00:28:48;;;;;;;3.08;0.90;;;;;;;6.07;51.02;101569.91;5018577;28;20037;-76
2022/10/10 00:31:16;;;;;;;4.82;0.80;;;;;;;6.19;50.46;101566.31;5040986;28;20420;-77
2022/10/10 00:33:47;;;;;;;8.15;1.20;;;;;;;6.03;50.84;101563.03;5017544;28;20138;-71
2022/10/10 00:36:24;;;;;;;4.00;1.38;;;;;;;6.08;51.06;101562.97;5028130;28;20436;-71
2022/10/10 00:38:52;;;;;;;2.20;0.80;;;;;;;6.05;50.91;101565.59;5024260;28;20432;-69
2022/10/10 00:41:18;;;;;;;3.22;1.10;;;;;;;6.05;50.91;101565.59;5026260;28;20040;-67
2022/10/10 00:44:07;;;;;;;1.77;0.50;;;;;;;5.98;50.74;101562.22;5024041;28;20069;-67
2022/10/10 00:46:36;;;;;;;1.65;0.88;;;;;;;5.87;51.50;101551.94;5023757;28;20029;-67
2022/10/10 00:49:06;;;;;;;3.08;0.93;;;;;;;5.88;51.43;101555.38;5024343;28;20041;-66
2022/10/10 00:51:38;;;;;;;1.25;0.60;;;;;;;5.93;50.95;101551.03;5024169;28;20076;-67
2022/10/10 00:54:09;;;;;;;1.90;1.00;;;;;;;5.85;51.23;101548.50;5028209;28;20651;-67
2022/10/10 00:56:42;;;;;;;2.25;0.82;;;;;;;5.82;50.75;101547.69;5026112;28;20037;-67
2022/10/10 00:59:11;;;;;;;2.22;1.02;;;;;;;5.74;51.26;101546.88;5023020;28;20040;-67
2022/10/10 01:01:38;;;;;;;4.78;0.88;;;;;;;5.78;51.15;101545.97;5025459;28;20041;-67
2022/10/10 01:04:33;;;;;;;3.03;0.63;;;;;;;5.75;50.92;101536.50;5030645;28;20037;-66
2022/10/10 01:07:02;;;;;;;4.30;0.82;;;;;;;5.62;50.75;101540.94;5006833;28;20600;-66
2022/10/10 01:09:28;;;;;;;1.77;0.70;;;;;;;5.53;51.27;101538.41;5022551;28;20035;-66
2022/10/10 01:12:16;;;;;;;3.83;0.70;;;;;;;5.51;51.66;101527.19;5022800;28;20406;-65
2022/10/10 01:14:58;;;;;;;5.78;1.13;;;;;;;5.49;51.64;101523.75;5028555;28;20053;-67
2022/10/10 01:17:56;;;;;;;2.42;0.90;;;;;;;5.39;51.50;101527.28;5032183;28;20414;-67
2022/10/10 01:21:08;;;;;;;3.63;0.60;;;;;;;5.36;51.53;101511.75;5024763;28;20033;-66
2022/10/10 01:23:57;;;;;;;3.30;1.08;;;;;;;5.34;51.79;101509.16;5014926;28;20064;-67
2022/10/10 01:27:10;;;;;;;2.58;0.82;;;;;;;5.25;51.49;101514.44;5022246;28;20044;-66
2022/10/10 01:29:44;;;;;;;1.77;0.88;;;;;;;5.08;51.81;101501.59;5013649;28;20084;-67
2022/10/10 01:32:33;;;;;;;1.92;0.60;;;;;;;5.20;51.68;101493.72;5024514;28;20041;-67
2022/10/10 01:35:21;;;;;;;3.42;0.75;;;;;;;5.15;51.84;101487.72;5034141;28;20040;-67
2022/10/10 01:38:16;;;;;;;2.17;1.23;;;;;;;5.05;52.34;101476.56;5002265;28;20041;-67
2022/10/10 01:41:29;;;;;;;6.68;1.50;;;;;;;5.11;51.89;101480.84;4986430;28;20048;-66
2022/10/10 01:43:58;;;;;;;3.05;0.60;;;;;;;5.11;51.89;101478.25;4931672;28;20113;-67
2022/10/10 01:46:25;;;;;;;3.20;0.60;;;;;;;5.03;51.81;101467.97;5027259;28;20375;-67
2022/10/10 01:48:54;;;;;;;1.70;0.60;;;;;;;4.93;51.88;101475.81;5014032;28;20570;-67
2022/10/10 01:51:50;;;;;;;2.53;0.70;;;;;;;4.82;52.28;101468.91;5029665;28;20049;-67
2022/10/10 01:54:40;;;;;;;2.78;0.50;;;;;;;4.76;52.48;101461.19;5023760;28;20131;-67
2022/10/10 01:57:18;;;;;;;1.27;0.90;;;;;;;4.84;52.47;101458.56;5028944;28;20047;-67
2022/10/10 02:00:08;;;;;;;5.97;1.20;;;;;;;4.79;52.56;101461.19;5021568;28;20048;-66
2022/10/10 02:03:17;;;;;;;2.88;0.70;;;;;;;4.78;52.73;101459.44;5025151;28;20041;-67
2022/10/10 02:06:01;;;;;;;3.30;0.80;;;;;;;4.78;52.67;101462.03;5019830;28;20226;-67
2022/10/10 02:08:45;;;;;;;2.55;1.33;;;;;;;4.82;52.53;101458.56;5022496;28;20120;-65
2022/10/10 02:11:13;;;;;;;3.53;0.60;;;;;;;4.94;52.14;101461.97;5030560;28;20037;-65
2022/10/10 02:13:56;;;;;;;2.55;0.70;;;;;;;4.90;51.88;101460.25;5025690;28;20111;-65
2022/10/10 02:16:26;;;;;;;4.90;0.60;;;;;;;4.72;51.95;101446.56;5025856;28;20029;-68
2022/10/10 02:18:56;;;;;;;4.55;0.70;;;;;;;4.57;52.50;101439.72;5021065;28;20401;-67
2022/10/10 02:21:25;;;;;;;1.35;0.50;;;;;;;4.65;51.86;101442.25;5022486;28;20462;-67
2022/10/10 02:23:54;;;;;;;2.78;0.93;;;;;;;4.61;52.40;101438.84;5028157;28;20413;-66
2022/10/10 02:26:30;;;;;;;2.90;0.80;;;;;;;4.57;52.57;101436.28;5024725;28;20037;-67
2022/10/10 02:29:05;;;;;;;3.63;1.33;;;;;;;4.51;52.74;101429.41;5037397;28;20128;-66
2022/10/10 02:31:46;;;;;;;1.73;0.80;;;;;;;4.57;52.84;101436.28;5023105;28;21504;-70
2022/10/10 02:34:21;;;;;;;2.13;0.73;;;;;;;4.67;52.37;101430.16;5023705;28;20041;-69
2022/10/10 02:36:54;;;;;;;1.55;0.52;;;;;;;4.71;52.43;101431.03;5013231;28;20041;-69
2022/10/10 02:39:32;;;;;;;4.40;0.50;;;;;;;4.68;52.43;101429.31;5036915;28;20022;-70
2022/10/10 02:42:11;;;;;;;2.95;0.88;;;;;;;4.71;52.54;101426.69;5031766;28;20046;-70
2022/10/10 02:44:38;;;;;;;3.00;0.70;;;;;;;4.51;52.23;101420.78;5025386;28;20029;-70
2022/10/10 02:47:04;;;;;;;5.80;0.82;;;;;;;4.48;52.21;101429.44;5023412;28;20492;-71
2022/10/10 02:49:34;;;;;;;2.55;0.80;;;;;;;4.40;52.42;101428.59;5021672;28;20040;-70
2022/10/10 02:52:08;;;;;;;6.63;1.25;;;;;;;4.43;52.50;101426.00;5021539;28;20051;-69
2022/10/10 02:54:38;;;;;;;1.48;0.50;;;;;;;4.34;52.62;101423.47;5024432;28;20037;-71
2022/10/10 02:57:06;;;;;;;1.20;0.50;;;;;;;4.42;52.66;101422.56;5026678;28;20069;-71
2022/10/10 02:59:34;;;;;;;4.20;0.55;;;;;;;4.39;52.52;101422.56;5019536;28;20036;-71
2022/10/10 03:02:03;;;;;;;3.63;0.73;;;;;;;4.33;52.42;101420.00;5022554;28;20041;-71
2022/10/10 03:04:28;;;;;;;2.80;0.88;;;;;;;4.37;52.41;101423.47;5025918;28;20039;-68
2022/10/10 03:06:54;;;;;;;5.40;1.27;;;;;;;4.22;52.64;101414.88;5011746;28;20041;-67
2022/10/10 03:09:24;;;;;;;1.42;0.70;;;;;;;4.16;52.81;101414.06;5023124;28;20412;-72
2022/10/10 03:12:00;;;;;;;1.95;0.65;;;;;;;4.17;52.85;101400.28;5025039;28;20113;-71
2022/10/10 03:14:27;;;;;;;0.80;0.40;;;;;;;4.23;52.72;101405.41;5021347;28;20420;-71
2022/10/10 03:16:55;;;;;;;1.17;0.60;;;;;;;4.30;53.02;101399.34;5015971;28;20237;-71
2022/10/10 03:19:23;;;;;;;3.13;0.60;;;;;;;4.32;52.86;101389.84;5030294;28;20106;-68
2022/10/10 03:22:06;;;;;;;2.55;0.98;;;;;;;4.28;53.19;101392.47;5011389;28;20144;-69
2022/10/10 03:24:31;;;;;;;3.42;0.70;;;;;;;4.25;52.56;101385.53;5025220;28;20036;-69
2022/10/10 03:27:01;;;;;;;1.40;1.13;;;;;;;4.30;52.69;101389.00;5027622;28;20044;-67
2022/10/10 03:29:34;;;;;;;2.60;0.63;;;;;;;4.20;52.31;101392.47;5024630;28;20064;-67
2022/10/10 03:32:02;;;;;;;2.67;0.90;;;;;;;4.27;53.08;101383.81;5020255;28;20126;-66
2022/10/10 03:34:30;;;;;;;2.53;0.68;;;;;;;4.16;53.82;101386.47;5022448;28;20182;-67
2022/10/10 03:36:56;;;;;;;2.92;1.55;;;;;;;4.34;52.95;101388.09;5029024;28;20041;-65
2022/10/10 03:39:21;;;;;;;3.13;0.63;;;;;;;4.35;53.34;101384.63;5023977;28;20121;-66
2022/10/10 03:41:49;;;;;;;2.70;0.80;;;;;;;4.33;52.88;101388.09;5011916;28;20648;-67
2022/10/10 03:44:16;;;;;;;2.88;0.68;;;;;;;4.22;53.17;101388.16;5021620;28;20038;-69
2022/10/10 03:46:42;;;;;;;2.80;0.80;;;;;;;4.19;53.00;101383.00;5022218;28;20037;-67
2022/10/10 03:49:10;;;;;;;1.25;0.40;;;;;;;4.20;52.76;101379.53;5029932;28;20049;-69
2022/10/10 03:51:41;;;;;;;3.40;1.00;;;;;;;4.12;52.61;101378.72;5010710;28;20034;-66
2022/10/10 03:54:11;;;;;;;1.70;0.68;;;;;;;4.06;53.19;101369.28;5020900;28;20030;-67
2022/10/10 03:56:37;;;;;;;7.53;0.88;;;;;;;4.00;53.99;101375.31;5012723;28;20037;-66
2022/10/10 03:59:04;;;;;;;1.90;0.95;;;;;;;4.06;53.97;101379.63;5023964;28;20047;-67
2022/10/10 04:01:35;;;;;;;1.05;0.40;;;;;;;4.13;53.14;101375.28;5022543;28;20045;-68
2022/10/10 04:04:04;;;;;;;1.65;0.73;;;;;;;4.08;52.96;101382.22;5021206;28;20040;-68
2022/10/10 04:06:32;;;;;;;1.42;0.52;;;;;;;4.05;53.17;101372.75;5020878;28;20037;-69
2022/10/10 04:09:00;;;;;;;2.33;0.82;;;;;;;3.98;53.46;101378.78;5013860;28;20033;-70
2022/10/10 04:11:25;;;;;;;4.93;0.70;;;;;;;4.02;53.95;101370.16;5018484;28;20512;-68
2022/10/10 04:13:51;;;;;;;4.55;0.80;;;;;;;4.07;54.26;101363.22;5022838;28;20042;-69
2022/10/10 04:16:16;;;;;;;2.58;0.68;;;;;;;4.12;54.27;101364.06;5019300;28;20103;-69
2022/10/10 04:18:46;;;;;;;1.65;0.77;;;;;;;4.12;54.61;101363.19;5019130;28;20045;-70
2022/10/10 04:21:14;;;;;;;4.40;1.35;;;;;;;4.14;54.47;101361.47;5023096;28;20041;-68
2022/10/10 04:23:42;;;;;;;6.10;0.90;;;;;;;4.17;54.01;101358.88;5026351;28;20405;-68
2022/10/10 04:26:10;;;;;;;1.77;0.50;;;;;;;4.10;54.38;101357.19;5019531;28;20035;-68
2022/10/10 04:28:40;;;;;;;2.53;0.95;;;;;;;4.21;54.55;101351.09;5023951;28;20030;-69
2022/10/10 04:31:10;;;;;;;3.72;1.00;;;;;;;4.22;54.17;101347.63;5026073;28;20312;-68
2022/10/10 04:33:40;;;;;;;2.50;1.00;;;;;;;4.21;54.63;101350.22;5019778;28;20140;-68
2022/10/10 04:36:09;;;;;;;2.72;0.77;;;;;;;4.27;54.48;101355.34;5020823;28;20137;-68
2022/10/10 04:38:35;;;;;;;5.15;1.50;;;;;;;4.34;54.03;101351.00;5010669;28;20437;-68
2022/10/10 04:41:00;;;;;;;2.25;0.93;;;;;;;4.30;54.15;101349.31;5021587;28;20509;-68
2022/10/10 04:43:33;;;;;;;4.80;1.42;;;;;;;4.33;54.65;101344.97;5022666;28;20410;-69
2022/10/10 04:45:58;;;;;;;2.10;1.15;;;;;;;4.32;54.00;101343.25;5026309;28;20419;-68
2022/10/10 04:48:26;;;;;;;4.50;0.90;;;;;;;4.28;53.65;101345.88;5027235;28;20570;-68
2022/10/10 04:50:57;;;;;;;4.03;1.00;;;;;;;4.30;54.20;101347.59;5024009;28;20485;-68
2022/10/10 04:53:24;;;;;;;2.23;0.83;;;;;;;4.38;54.45;101345.78;5029203;28;20037;-68
2022/10/10 04:55:52;;;;;;;1.85;0.82;;;;;;;4.41;54.50;101340.59;5025820;28;20622;-67
2022/10/10 04:58:21;;;;;;;1.85;0.95;;;;;;;4.48;53.83;101330.22;5015455;28;20120;-71
2022/10/10 05:00:56;;;;;;;2.53;1.42;;;;;;;4.45;54.39;101331.06;5028693;28;20037;-67
2022/10/10 05:03:25;;;;;;;2.35;1.10;;;;;;;4.47;54.02;101328.47;5028300;28;20045;-72
2022/10/10 05:05:51;;;;;;;1.48;0.80;;;;;;;4.50;54.50;101326.75;5024764;28;20032;-65
2022/10/10 05:08:24;;;;;;;1.70;1.00;;;;;;;4.52;54.03;101322.41;5025826;28;20056;-63
2022/10/10 05:10:57;;;;;;;7.57;1.35;;;;;;;4.46;53.62;101322.44;5025496;28;20248;-64
2022/10/10 05:13:23;;;;;;;2.63;0.90;;;;;;;4.41;53.18;101322.50;5024213;28;20065;-69
2022/10/10 05:15:51;;;;;;;5.15;1.05;;;;;;;4.42;53.52;101324.19;5026422;28;20033;-69
2022/10/10 05:18:23;;;;;;;3.60;1.02;;;;;;;4.29;53.50;101316.53;5016873;28;20268;-68
2022/10/10 05:20:48;;;;;;;4.05;1.00;;;;;;;4.24;53.71;101313.13;5015740;28;20139;-74
2022/10/10 05:23:16;;;;;;;2.45;0.73;;;;;;;4.21;54.35;101314.00;5025770;28;20033;-77
2022/10/10 05:25:47;;;;;;;5.13;1.25;;;;;;;4.24;54.04;101313.97;5023999;28;20033;-74
2022/10/10 05:28:15;;;;;;;5.93;1.60;;;;;;;4.19;53.88;101314.00;5014292;28;20123;-71
2022/10/10 05:30:46;;;;;;;2.70;1.13;;;;;;;4.30;54.37;101313.94;5022060;28;20052;-71
2022/10/10 05:33:12;;;;;;;7.13;1.07;;;;;;;4.24;54.25;101306.22;5023694;28;20037;-72
2022/10/10 05:35:42;;;;;;;2.25;1.17;;;;;;;4.31;54.61;101297.53;5025195;28;20549;-73
2022/10/10 05:38:10;;;;;;;3.10;1.08;;;;;;;4.40;53.94;101300.03;5021774;28;20490;-71
2022/10/10 05:40:39;;;;;;;2.92;1.05;;;;;;;4.43;53.94;101300.03;5009238;28;20205;-76
2022/10/10 05:43:09;;;;;;;2.17;1.33;;;;;;;4.40;54.11;101294.88;5018212;28;20124;-76
2022/10/10 05:45:41;;;;;;;2.75;1.10;;;;;;;4.45;53.85;101296.56;5015771;28;20033;-76
2022/10/10 05:48:17;;;;;;;3.25;1.52;;;;;;;4.43;53.14;101305.22;5031620;28;20041;-72
2022/10/10 05:50:56;;;;;;;5.85;1.42;;;;;;;4.35;53.52;101294.06;5022870;28;20552;-68
2022/10/10 05:53:28;;;;;;;1.90;0.95;;;;;;;4.42;53.20;101300.03;5031038;28;20068;-72
2022/10/10 05:55:56;;;;;;;6.53;1.27;;;;;;;4.48;53.55;101299.16;5024915;28;20513;-73
2022/10/10 05:58:32;;;;;;;4.20;1.33;;;;;;;4.40;53.46;101292.28;5031296;28;20033;-75
2022/10/10 06:01:05;;;;;;;7.18;2.47;;;;;;;4.44;53.75;101290.53;5022160;28;20033;-71
2022/10/10 06:03:31;;;;;;;8.60;1.50;;;;;;;4.53;53.69;101289.63;5032309;28;20068;-79
2022/10/10 06:05:59;;;;;;;3.25;1.15;;;;;;;4.60;53.78;101286.09;5033100;28;20465;-70
2022/10/10 06:08:24;;;;;;;2.53;1.30;;;;;;;4.69;52.80;101283.44;5029777;28;20398;-70
2022/10/10 06:10:50;;;;;;;2.60;1.10;;;;;;;4.76;53.03;101282.50;5023565;28;20037;-70
2022/10/10 06:13:19;;;;;;;2.58;0.80;;;;;;;4.86;52.91;101283.28;5020973;28;20374;-70
2022/10/10 06:15:53;;;;;;;1.65;0.70;;;;;;;4.90;52.81;101274.66;5024024;28;20065;-73
2022/10/10 06:18:24;;;;;;;1.60;0.80;;;;;;;4.92;52.69;101279.78;5017923;28;20030;-68
2022/10/10 06:20:49;;;;;;;8.70;1.67;;;;;;;5.01;52.56;101271.91;5023326;28;20041;-73
2022/10/10 06:23:24;;;;;;;2.65;1.45;;;;;;;5.10;52.27;101276.16;5019629;28;20037;-75
2022/10/10 06:25:52;;;;;;;3.22;0.88;;;;;;;5.21;52.44;101275.19;5028792;28;20060;-74
2022/10/10 06:28:21;;;;;;;5.13;0.93;;;;;;;5.20;52.25;101277.78;5013819;28;20535;-75
2022/10/10 06:30:52;;;;;;;3.20;1.20;;;;;;;5.35;52.06;101272.44;5030227;28;20450;-74
2022/10/10 06:33:23;;;;;;;2.10;1.13;;;;;;;5.52;52.14;101274.78;5024840;28;20041;-73
2022/10/10 06:35:48;;;;;;;8.68;2.50;;;;;;;5.67;52.05;101278.94;5021771;28;20032;-71
2022/10/10 06:38:15;;;;;;;5.47;2.03;;;;;;;5.78;51.95;101276.22;4997562;28;20049;-71
2022/10/10 06:40:46;;;;;;;5.57;1.90;;;;;;;5.82;51.21;101278.75;5019779;28;20037;-70
2022/10/10 06:43:13;;;;;;;2.38;1.23;;;;;;;6.02;51.11;101281.06;5027931;28;20045;-70
2022/10/10 06:45:49;;;;;;;3.72;1.52;;;;;;;6.17;51.13;101279.09;5031178;28;20091;-72
2022/10/10 06:48:21;;;;;;;2.17;1.60;;;;;;;7.14;50.40;101274.91;5026046;28;20516;-76
2022/10/10 06:51:07;;;;;;;2.67;1.23;;;;;;;9.15;44.59;101271.09;5050173;28;20041;-70
2022/10/10 06:53:33;;;;;;;5.88;1.23;;;;;;;11.18;40.47;101267.31;5020026;28;20525;-69
2022/10/10 06:56:02;;;;;;;2.45;0.93;;;;;;;12.74;38.01;101271.75;5017901;28;20067;-72
2022/10/10 06:58:30;;;;;;;4.65;1.10;;;;;;;13.52;36.43;101271.72;5008522;28;20124;-73
2022/10/10 07:00:58;;;;;;;4.88;1.40;;;;;;;13.52;34.30;101274.38;5020728;28;20052;-70
2022/10/10 07:03:29;;;;;;;4.70;1.47;;;;;;;13.45;35.30;101272.06;5030002;28;20079;-70
2022/10/10 07:05:58;;;;;;;2.88;1.40;;;;;;;13.88;33.52;101273.59;5034018;28;20290;-70
2022/10/10 07:08:27;;;;;;;3.85;1.27;;;;;;;13.75;33.17;101269.84;5008045;28;20149;-69
2022/10/10 07:10:59;;;;;;;1.40;0.95;;;;;;;14.19;32.06;101272.13;5028519;28;20118;-69
2022/10/10 07:13:25;;;;;;;2.05;1.17;;;;;;;14.28;32.48;101266.41;5022045;28;20041;-70
2022/10/10 07:15:53;;;;;;;2.78;0.82;;;;;;;14.51;32.37;101274.94;5021428;28;20033;-71
2022/10/10 07:18:22;;;;;;;4.00;1.00;;;;;;;15.67;31.68;101272.41;5017313;28;20406;-71
2022/10/10 07:21:03;;;;;;;2.80;1.08;;;;;;;16.40;28.28;101267.41;5018325;28;20045;-71
2022/10/10 07:23:30;;;;;;;2.83;1.10;;;;;;;16.44;29.10;101268.06;5001945;28;20068;-71
2022/10/10 07:26:01;;;;;;;1.58;0.77;;;;;;;16.87;28.58;101266.38;5020174;28;20465;-71
2022/10/10 07:28:27;;;;;;;2.85;0.70;;;;;;;17.49;27.61;101257.31;5013479;28;20123;-71
2022/10/10 07:31:14;;;;;;;4.43;1.33;;;;;;;18.14;26.09;101262.81;5021124;28;20502;-72
2022/10/10 07:33:46;;;;;;;1.90;0.90;;;;;;;18.33;26.58;101259.81;5021158;28;20041;-71
2022/10/10 07:36:12;;;;;;;4.03;0.80;;;;;;;18.47;26.33;101250.91;5030040;28;20044;-70
2022/10/10 07:38:50;;;;;;;3.15;0.70;;;;;;;19.03;25.67;101258.59;5008896;28;20037;-71
2022/10/10 07:41:16;;;;;;;2.83;1.05;;;;;;;18.58;26.37;101258.16;5022795;28;20448;-71
2022/10/10 07:43:44;;;;;;;3.83;0.93;;;;;;;19.02;25.24;101259.56;5020335;28;20045;-72
2022/10/10 07:46:18;;;;;;;3.85;1.05;;;;;;;18.71;26.61;101264.28;5021956;28;20045;-72
2022/10/10 07:48:44;;;;;;;3.30;0.73;;;;;;;20.10;24.74;101266.81;5021400;28;20065;-72
2022/10/10 07:51:11;;;;;;;2.03;1.02;;;;;;;19.93;24.37;101264.56;5011698;28;20033;-71
2022/10/10 07:53:41;;;;;;;4.93;1.30;;;;;;;20.37;23.71;101272.81;5014260;28;20048;-70
2022/10/10 07:56:10;;;;;;;4.25;0.90;;;;;;;21.40;23.02;101267.50;5012576;28;20039;-71
2022/10/10 07:58:39;;;;;;;2.38;1.35;;;;;;;20.94;23.55;101266.69;5023574;28;20119;-70
2022/10/10 08:01:07;;;;;;;2.38;0.82;;;;;;;20.38;23.45;101264.75;5021355;28;20292;-71
2022/10/10 08:03:33;;;;;;;3.10;1.00;;;;;;;21.10;23.23;101261.84;5023413;28;20129;-70
2022/10/10 08:06:06;;;;;;;3.35;1.33;;;;;;;20.93;22.32;101264.97;5015276;28;20037;-72
2022/10/10 08:08:35;;;;;;;4.05;1.27;;;;;;;20.68;23.56;101258.06;5023984;28;20160;-71
2022/10/10 08:11:03;;;;;;;4.00;1.38;;;;;;;20.41;23.51;101261.00;5038099;28;20091;-72
2022/10/10 08:13:34;;;;;;;4.60;1.58;;;;;;;20.64;23.74;101256.59;5017982;28;20041;-71
2022/10/10 08:16:04;;;;;;;2.83;1.25;;;;;;;21.18;23.72;101261.25;5017295;28;20043;-71
2022/10/10 08:18:29;;;;;;;4.22;1.25;;;;;;;20.63;23.73;101257.56;5023129;28;20048;-72
2022/10/10 08:21:07;;;;;;;3.72;1.50;;;;;;;20.12;24.62;101256.91;5022610;28;20053;-72
2022/10/10 08:23:34;;;;;;;4.93;1.27;;;;;;;19.30;25.84;101255.78;5028327;28;20454;-72
2022/10/10 08:26:04;;;;;;;2.35;1.08;;;;;;;14.33;32.70;101251.25;5023302;28;20356;-71
2022/10/10 08:28:37;;;;;;;5.13;1.27;;;;;;;16.99;29.35;101254.22;5021935;28;20033;-70
2022/10/10 08:31:11;;;;;;;1.88;1.23;;;;;;;17.96;28.35;101251.63;5019491;28;20033;-71
2022/10/10 08:33:37;;;;;;;3.17;1.10;;;;;;;18.17;27.55;101254.66;5021613;28;20461;-70
2022/10/10 08:36:10;;;;;;;3.42;1.70;;;;;;;19.05;27.62;101241.63;5019020;28;20069;-69
2022/10/10 08:38:39;;;;;;;2.00;1.23;;;;;;;18.69;27.61;101245.03;5019109;28;20043;-69
2022/10/10 08:41:35;;;;;;;3.40;1.30;;;;;;;17.29;29.09;101245.34;5019429;28;20390;-70
2022/10/10 08:44:26;;;;;;;2.65;1.38;;;;;;;14.12;34.41;101242.66;5020747;28;20477;-70
2022/10/10 08:46:56;;;;;;;3.63;1.65;;;;;;;15.04;32.90;101242.38;5021870;28;20034;-70
2022/10/10 08:49:31;;;;;;;3.70;1.45;;;;;;;14.63;34.87;101245.38;5022550;28;20140;-70
2022/10/10 08:52:11;;;;;;;3.72;1.30;;;;;;;15.27;33.87;101240.34;5027862;28;20148;-70
2022/10/10 08:54:41;;;;;;;4.15;1.50;;;;;;;15.95;32.70;101240.94;5023018;28;20041;-70
2022/10/10 08:57:24;;;;;;;6.00;1.63;;;;;;;15.67;33.36;101235.50;5013157;28;20438;-69
2022/10/10 08:59:53;;;;;;;5.03;1.42;;;;;;;16.61;31.97;101234.44;5021260;28;20048;-70
2022/10/10 09:02:24;;;;;;;6.40;2.15;;;;;;;16.04;32.20;101236.94;5023981;28;20045;-71
2022/10/10 09:04:50;;;;;;;3.65;1.80;;;;;;;14.75;34.48;101228.97;5036964;28;20072;-71
2022/10/10 09:07:43;;;;;;;6.07;2.00;;;;;;;15.73;32.97;101228.13;5012284;28;20496;-71
2022/10/10 09:10:32;;;;;;;6.53;1.75;;;;;;;16.11;33.42;101234.81;5030720;28;20025;-70
2022/10/10 09:13:07;;;;;;;2.85;1.40;;;;;;;16.77;32.55;101229.13;5005480;28;20072;-71
2022/10/10 09:16:05;;;;;;;4.72;2.20;;;;;;;15.14;34.87;101237.47;5024761;28;20151;-71
2022/10/10 09:18:40;;;;;;;9.35;2.05;;;;;;;15.45;34.54;101241.97;5019947;28;20049;-70
2022/10/10 09:21:19;;;;;;;4.28;1.73;;;;;;;16.07;33.63;101243.84;5023261;28;20041;-71
2022/10/10 09:24:24;;;;;;;7.82;1.77;;;;;;;16.47;33.26;101241.50;5020974;28;20041;-70
2022/10/10 09:26:56;;;;;;;3.97;2.13;;;;;;;17.50;31.40;101236.09;5011641;28;20061;-71
2022/10/10 09:29:42;;;;;;;6.10;2.47;;;;;;;16.09;33.08;101236.69;5034196;28;20548;-71
2022/10/10 09:32:18;;;;;;;3.33;1.75;;;;;;;15.99;33.38;101237.19;5020418;28;20040;-72
2022/10/10 09:35:04;;;;;;;4.45;2.00;;;;;;;16.36;33.33;101229.78;5031340;28;20033;-70
2022/10/10 09:37:38;;;;;;;3.60;1.45;;;;;;;16.58;32.73;101233.81;5017527;28;20596;-71
2022/10/10 09:40:32;;;;;;;9.93;2.38;;;;;;;16.85;32.61;101230.47;5020672;28;20127;-71
2022/10/10 09:43:12;;;;;;;2.50;1.40;;;;;;;16.01;33.83;101229.19;5019826;28;20141;-71
2022/10/10 09:45:52;;;;;;;7.00;1.65;;;;;;;17.01;33.13;101225.94;5027506;28;20033;-71
2022/10/10 09:48:32;;;;;;;8.70;1.77;;;;;;;15.62;34.52;101229.63;5011784;28;20040;-71
2022/10/10 09:51:03;;;;;;;4.18;2.05;;;;;;;16.48;34.55;101222.09;5021793;28;20041;-71
2022/10/10 09:53:28;;;;;;;3.08;1.50;;;;;;;16.62;33.32;101219.47;5020005;28;20842;-71
2022/10/10 09:55:57;;;;;;;4.18;2.10;;;;;;;15.03;36.28;101224.88;5021914;28;20061;-69
2022/10/10 09:58:29;;;;;;;5.47;2.05;;;;;;;15.64;35.62;101227.75;5014572;28;20087;-69
2022/10/10 10:01:23;;;;;;;5.32;1.90;;;;;;;16.14;34.72;101224.91;5022621;28;20700;-70
2022/10/10 10:04:08;;;;;;;6.47;2.20;;;;;;;16.16;34.85;101230.13;5018784;28;20052;-71
2022/10/10 10:06:36;;;;;;;3.70;2.13;;;;;;;14.87;36.82;101226.63;5021469;28;20029;-71
2022/10/10 10:09:12;;;;;;;5.82;2.38;;;;;;;15.44;36.55;101234.13;5006427;28;20678;-70
2022/10/10 10:11:45;;;;;;;5.07;2.25;;;;;;;15.06;36.48;101237.03;5014140;28;20025;-70
2022/10/10 10:14:25;;;;;;;4.68;2.40;;;;;;;14.69;37.51;101233.69;5024939;28;20041;-70
2022/10/10 10:16:54;;;;;;;3.83;2.00;;;;;;;14.98;37.66;101242.69;5020535;28;20041;-69
2022/10/10 10:19:36;;;;;;;5.43;2.90;;;;;;;15.64;36.20;101246.19;5029065;28;20025;-69
2022/10/10 10:22:03;;;;;;;5.30;2.33;;;;;;;15.75;35.67;101241.19;5009502;28;20053;-70
2022/10/10 10:24:36;;;;;;;5.70;3.50;;;;;;;16.71;34.95;101234.75;5019883;28;20719;-70
2022/10/10 10:27:15;;;;;;;5.00;2.35;;;;;;;17.14;34.11;101234.78;5026743;28;20056;-70
2022/10/10 10:29:52;;;;;;;6.65;3.03;;;;;;;16.05;35.60;101235.16;5022872;28;20033;-70
2022/10/10 10:33:08;;;;;;;5.63;2.50;;;;;;;16.23;35.47;101223.53;5013611;28;20037;-70
2022/10/10 10:35:45;;;;;;;8.05;2.60;;;;;;;14.53;38.11;101238.91;5006573;28;20047;-71
2022/10/10 10:38:35;;;;;;;6.00;2.85;;;;;;;15.58;37.53;101235.06;5010686;28;20103;-71
2022/10/10 10:41:14;;;;;;;;;;;;;;;;;;;;;
2022/10/10 10:43:52;;;;;;;9.23;2.72;;;;;;;14.82;38.23;101233.91;5019295;28;20045;-71
2022/10/10 10:46:39;;;;;;;6.03;2.47;;;;;;;16.10;37.53;101233.94;5020313;28;20059;-70
2022/10/10 10:49:27;;;;;;;8.68;2.40;;;;;;;16.31;35.81;101231.84;5022128;28;20049;-70
2022/10/10 10:51:58;;;;;;;5.68;2.08;;;;;;;15.88;37.58;101234.28;5017002;28;20034;-70
2022/10/10 10:54:57;;;;;;;4.85;2.40;;;;;;;15.44;36.96;101240.28;5022161;28;20025;-70
2022/10/10 10:57:44;;;;;;;5.30;2.22;;;;;;;16.02;36.94;101236.19;5018950;28;20079;-74
2022/10/10 11:00:19;;;;;;;5.00;1.83;;;;;;;16.66;36.03;101234.16;5017060;28;20853;-72
2022/10/10 11:03:01;;;;;;;5.72;2.40;;;;;;;16.56;35.82;101235.69;5021736;28;20586;-71
2022/10/10 11:05:37;;;;;;;6.57;2.08;;;;;;;16.45;35.37;101238.09;5026125;28;20034;-73
2022/10/10 11:08:23;;;;;;;4.93;2.00;;;;;;;16.25;36.46;101239.28;5010369;28;20585;-72
2022/10/10 11:11:04;;;;;;;5.35;2.22;;;;;;;16.23;36.57;101238.50;5019425;28;20033;-70
2022/10/10 11:13:46;;;;;;;5.28;2.95;;;;;;;15.98;36.62;101240.75;5018349;28;20045;-71
2022/10/10 11:16:36;;;;;;;2.42;2.13;;;;;;;16.40;36.25;101238.38;5020224;28;20083;-71
2022/10/10 11:19:19;;;;;;;4.95;2.45;;;;;;;15.95;37.34;101243.56;5018145;28;20434;-70
2022/10/10 11:22:14;;;;;;;4.55;2.40;;;;;;;16.02;36.55;101237.94;5019263;28;20898;-70
2022/10/10 11:24:43;;;;;;;7.18;3.35;;;;;;;15.71;37.57;101243.16;5026435;28;20033;-70
2022/10/10 11:27:36;;;;;;;4.75;2.17;;;;;;;15.61;38.07;101239.31;5006736;28;20060;-70
2022/10/10 11:30:27;;;;;;;8.30;4.03;;;;;;;15.80;38.12;101247.06;5016854;28;20124;-70
2022/10/10 11:33:06;;;;;;;8.13;3.20;;;;;;;15.87;38.07;101248.41;5016539;28;20127;-70
2022/10/10 11:35:35;;;;;;;7.40;3.20;;;;;;;15.65;38.59;101251.41;5020828;28;20413;-71
2022/10/10 11:38:32;;;;;;;8.95;3.80;;;;;;;15.17;39.56;101245.22;5022177;28;20891;-71
2022/10/10 11:41:08;;;;;;;6.05;3.03;;;;;;;16.04;38.39;101251.91;5021291;28;20120;-71
2022/10/10 11:43:52;;;;;;;5.80;2.42;;;;;;;17.00;37.02;101242.69;5019142;28;20045;-70
2022/10/10 11:46:25;;;;;;;9.52;3.22;;;;;;;17.45;35.73;101246.09;5022173;28;20401;-71
2022/10/10 11:48:56;;;;;;;11.85;3.40;;;;;;;17.20;35.12;101245.00;5008794;28;20283;-71
2022/10/10 11:51:32;;;;;;;6.70;3.30;;;;;;;16.55;36.58;101249.78;5021924;28;20045;-71
2022/10/10 11:54:02;;;;;;;13.45;5.53;;;;;;;16.10;36.75;101252.41;5010182;28;20080;-71
2022/10/10 11:56:36;;;;;;;4.47;3.00;;;;;;;16.77;37.85;101260.78;5022865;28;20984;-70
2022/10/10 11:59:28;;;;;;;7.00;3.33;;;;;;;16.80;36.86;101250.06;5032128;28;20052;-71
2022/10/10 12:01:58;;;;;;;10.15;3.45;;;;;;;16.67;35.97;101249.09;5030887;28;20045;-71
2022/10/10 12:04:33;;;;;;;8.27;4.05;;;;;;;15.89;37.84;101259.72;5024282;28;20028;-71